createdAt,value
2023-02-23T00:00:03.040Z,0
2023-02-23T00:05:02.722Z,0
2023-02-23T00:10:02.683Z,0
2023-02-23T00:15:03.358Z,0
2023-02-23T00:20:03.082Z,0
2023-02-23T00:25:03.618Z,0
2023-02-23T00:30:02.740Z,0
2023-02-23T00:35:02.479Z,0
2023-02-23T00:40:02.405Z,0
2023-02-23T00:45:03.126Z,0
2023-02-23T00:50:03.320Z,0
2023-02-23T00:55:03.612Z,0
2023-02-23T01:00:02.731Z,0
2023-02-23T01:05:02.405Z,0
2023-02-23T01:10:03.228Z,0
2023-02-23T01:15:02.929Z,0
2023-02-23T01:20:02.558Z,0
2023-02-23T01:25:02.446Z,0
2023-02-23T01:30:03.269Z,0
2023-02-23T01:35:02.988Z,0
2023-02-23T01:40:02.648Z,0
2023-02-23T01:45:02.798Z,0
2023-02-23T01:50:02.519Z,0
2023-02-23T01:55:03.174Z,0
2023-02-23T02:00:03.340Z,0
2023-02-23T02:05:03.262Z,0
2023-02-23T02:10:03.016Z,0
2023-02-23T02:15:03.152Z,0
2023-02-23T02:20:02.755Z,0
2023-02-23T02:25:02.883Z,0
2023-02-23T02:30:03.396Z,0
2023-02-23T02:35:02.588Z,0
2023-02-23T02:40:02.345Z,0
2023-02-23T02:45:03.278Z,0
2023-02-23T02:50:03.122Z,0
2023-02-23T02:55:03.893Z,0
2023-02-23T03:00:03.008Z,0
2023-02-23T03:05:02.760Z,0
2023-02-23T03:10:02.417Z,0
2023-02-23T03:15:03.288Z,0
2023-02-23T03:20:02.411Z,0
2023-02-23T03:25:03.221Z,0
2023-02-23T03:30:02.939Z,0
2023-02-23T03:35:02.658Z,0
2023-02-23T03:40:02.460Z,0
2023-02-23T03:45:03.449Z,0
2023-02-23T03:50:02.951Z,0
2023-02-23T03:55:03.652Z,0
2023-02-23T04:00:02.789Z,0
2023-02-23T04:05:02.844Z,0
2023-02-23T04:10:02.497Z,0
2023-02-23T04:15:03.184Z,0
2023-02-23T04:20:03.317Z,0
2023-02-23T04:25:02.946Z,0
2023-02-23T04:30:02.746Z,0
2023-02-23T04:35:02.811Z,0
2023-02-23T04:40:02.574Z,0
2023-02-23T04:45:02.969Z,0
2023-02-23T04:50:02.557Z,0
2023-02-23T04:55:03.083Z,0
2023-02-23T05:00:03.134Z,0
2023-02-23T05:05:03.316Z,0
2023-02-23T05:10:03.077Z,0
2023-02-23T05:15:02.918Z,0
2023-02-23T05:20:03.016Z,0
2023-02-23T05:25:02.873Z,0
2023-02-23T05:30:02.682Z,0
2023-02-23T05:35:03.299Z,0.23
2023-02-23T05:40:03.063Z,0.91
2023-02-23T05:45:02.939Z,2.6
2023-02-23T05:50:02.644Z,7.02
2023-02-23T05:55:03.974Z,6.67
2023-02-23T06:00:03.171Z,18.33
2023-02-23T06:05:03.035Z,63.33
2023-02-23T06:10:02.671Z,96.67
2023-02-23T06:15:02.438Z,146.67
2023-02-23T06:20:03.160Z,213.33
2023-02-23T06:25:03.096Z,290
2023-02-23T06:30:02.668Z,378.33
2023-02-23T06:35:02.416Z,446.67
2023-02-23T06:40:03.167Z,513.33
2023-02-23T06:45:03.250Z,603.33
2023-02-23T06:50:03.057Z,753.33
2023-02-23T06:55:03.533Z,973.33
2023-02-23T07:00:02.477Z,1166.67
2023-02-23T07:05:03.306Z,1278.33
2023-02-23T07:10:03.064Z,1366.67
2023-02-23T07:15:02.927Z,1518.33
2023-02-23T07:20:02.724Z,1668.33
2023-02-23T07:25:02.393Z,1785
2023-02-23T07:30:03.127Z,1856.67
2023-02-23T07:35:02.799Z,1771.67
2023-02-23T07:40:02.508Z,1610
2023-02-23T07:45:03.214Z,1503.33
2023-02-23T07:50:03.025Z,1478.33
2023-02-23T07:55:03.590Z,1488.33
2023-02-23T08:00:02.373Z,1615
2023-02-23T08:05:03.146Z,1758.33
2023-02-23T08:10:02.810Z,1888.33
2023-02-23T08:15:02.677Z,2108.33
2023-02-23T08:20:02.441Z,2450
2023-02-23T08:25:03.366Z,2743.33
2023-02-23T08:30:02.935Z,2366.67
2023-02-23T08:35:02.964Z,2540
2023-02-23T08:40:02.738Z,3085
2023-02-23T08:45:02.689Z,3016.67
2023-02-23T08:50:03.322Z,2510
2023-02-23T08:55:03.876Z,2986.67
2023-02-23T09:00:02.729Z,4423.33
2023-02-23T09:05:03.681Z,5300
2023-02-23T09:10:03.244Z,5448.33
2023-02-23T09:15:03.476Z,5571.67
2023-02-23T09:20:03.248Z,5741.67
2023-02-23T09:25:02.791Z,5750
2023-02-23T09:30:02.769Z,5183.33
2023-02-23T09:35:02.423Z,5316.67
2023-02-23T09:40:03.114Z,5093.33
2023-02-23T09:45:02.950Z,5166.67
2023-02-23T09:50:02.605Z,5393.33
2023-02-23T09:55:02.807Z,5433.33
2023-02-23T10:00:03.251Z,5048.33
2023-02-23T10:05:03.186Z,4285
2023-02-23T10:10:03.008Z,5506.67
2023-02-23T10:15:03.290Z,6483.33
2023-02-23T10:20:03.214Z,7748.33
2023-02-23T10:25:02.864Z,7043.33
2023-02-23T10:30:02.764Z,6455
2023-02-23T10:35:02.390Z,7401.67
2023-02-23T10:40:03.104Z,7010
2023-02-23T10:45:02.878Z,6211.67
2023-02-23T10:50:02.996Z,5165
2023-02-23T10:55:03.413Z,7796.67
2023-02-23T11:00:03.356Z,5478.33
2023-02-23T11:05:03.131Z,5640
2023-02-23T11:10:02.748Z,6756.67
2023-02-23T11:15:02.689Z,7636.67
2023-02-23T11:20:02.755Z,7936.67
2023-02-23T11:25:03.241Z,7465
2023-02-23T11:30:03.116Z,7210
2023-02-23T11:35:02.875Z,6960
2023-02-23T11:40:02.691Z,6956.67
2023-02-23T11:45:02.535Z,7395
2023-02-23T11:50:03.076Z,8123.33
2023-02-23T11:55:03.538Z,8308.33
2023-02-23T12:00:02.609Z,7680
2023-02-23T12:05:03.365Z,7540
2023-02-23T12:10:03.049Z,7768.33
2023-02-23T12:15:02.784Z,7800
2023-02-23T12:20:02.626Z,7155
2023-02-23T12:25:02.469Z,6691.67
2023-02-23T12:30:03.243Z,6248.33
2023-02-23T12:35:03.198Z,6570
2023-02-23T12:40:02.668Z,6090
2023-02-23T12:45:02.469Z,6055
2023-02-23T12:50:03.177Z,5528.33
2023-02-23T12:55:03.264Z,4738.33
2023-02-23T13:00:02.744Z,4413.33
2023-02-23T13:05:02.565Z,3816.67
2023-02-23T13:10:02.492Z,2808.33
2023-02-23T13:15:03.361Z,3643.33
2023-02-23T13:20:03.141Z,3590
2023-02-23T13:25:05.409Z,3281.67
2023-02-23T13:30:02.994Z,2956.67
2023-02-23T13:35:02.791Z,2360
2023-02-23T13:40:02.379Z,2668.33
2023-02-23T13:45:03.196Z,2898.33
2023-02-23T13:50:02.869Z,3200
2023-02-23T13:55:03.929Z,3516.67
2023-02-23T14:00:02.720Z,2908.33
2023-02-23T14:05:03.343Z,2920
2023-02-23T14:10:03.215Z,2943.33
2023-02-23T14:15:03.092Z,3126.67
2023-02-23T14:20:06.234Z,3671.67
2023-02-23T14:25:03.288Z,3893.33
2023-02-23T14:30:02.981Z,3913.33
2023-02-23T14:35:02.902Z,3281.67
2023-02-23T14:40:02.704Z,2886.67
2023-02-23T14:45:02.542Z,2218.33
2023-02-23T14:50:03.249Z,1606.67
2023-02-23T14:55:08.495Z,1496.67
2023-02-23T15:00:03.228Z,1815
2023-02-23T15:05:03.136Z,1810
2023-02-23T15:10:02.874Z,1595
2023-02-23T15:15:02.531Z,1320
2023-02-23T15:20:17.039Z,1183.33
2023-02-23T15:25:03.239Z,1021.67
2023-02-23T15:30:02.896Z,948.33
2023-02-23T15:35:02.478Z,1045
2023-02-23T15:40:03.577Z,1495
2023-02-23T15:45:02.993Z,1386.67
2023-02-23T15:50:02.768Z,1331.67
2023-02-23T15:55:03.254Z,1138.33
2023-02-23T16:00:02.455Z,921.67
2023-02-23T16:05:03.159Z,688.33
2023-02-23T16:10:03.223Z,495
2023-02-23T16:15:03.041Z,375
2023-02-23T16:20:03.077Z,240
2023-02-23T16:25:02.547Z,156.67
2023-02-23T16:30:03.138Z,88.33
2023-02-23T16:35:02.883Z,58.33
2023-02-23T16:40:02.613Z,41.67
2023-02-23T16:45:02.466Z,23.33
2023-02-23T16:50:19.952Z,10
2023-02-23T16:55:04.261Z,9.73
2023-02-23T17:00:03.242Z,4.64
2023-02-23T17:05:02.834Z,1.7
2023-02-23T17:10:02.672Z,0.57
2023-02-23T17:15:02.462Z,0.11
2023-02-23T17:20:03.259Z,0
2023-02-23T17:25:03.240Z,0
2023-02-23T17:30:03.144Z,0
2023-02-23T17:35:02.773Z,0
2023-02-23T17:40:02.485Z,0
2023-02-23T17:45:03.319Z,0
2023-02-23T17:50:03.024Z,0
2023-02-23T17:55:03.046Z,0
2023-02-23T18:00:02.974Z,0
2023-02-23T18:05:02.491Z,0
2023-02-23T18:10:03.354Z,0
2023-02-23T18:15:03.204Z,0
2023-02-23T18:20:02.956Z,0
2023-02-23T18:25:02.668Z,0
2023-02-23T18:30:02.639Z,0
2023-02-23T18:35:02.435Z,0
2023-02-23T18:40:03.304Z,0
2023-02-23T18:45:02.951Z,0
2023-02-23T18:50:02.790Z,0
2023-02-23T18:55:03.569Z,0
2023-02-23T19:00:02.844Z,0
2023-02-23T19:05:02.639Z,0
2023-02-23T19:10:03.261Z,0
2023-02-23T19:15:03.111Z,0
2023-02-23T19:20:02.909Z,0
2023-02-23T19:25:02.522Z,0
2023-02-23T19:30:02.466Z,0
2023-02-23T19:35:03.200Z,0
2023-02-23T19:40:04.105Z,0
2023-02-23T19:45:03.018Z,0
2023-02-23T19:50:02.870Z,0
2023-02-23T19:55:03.456Z,0
2023-02-23T20:00:02.827Z,0
2023-02-23T20:05:03.952Z,0
2023-02-23T20:10:02.719Z,0
2023-02-23T20:15:02.845Z,0
2023-02-23T20:20:02.928Z,0
2023-02-23T20:25:02.597Z,0
2023-02-23T20:30:02.785Z,0
2023-02-23T20:35:02.663Z,0
2023-02-23T20:40:02.344Z,0
2023-02-23T20:45:03.179Z,0
2023-02-23T20:50:02.829Z,0
2023-02-23T20:55:03.100Z,0
2023-02-23T21:00:03.395Z,0
2023-02-23T21:05:03.022Z,0
2023-02-23T21:10:02.848Z,0
2023-02-23T21:15:02.832Z,0
2023-02-23T21:20:02.862Z,0
2023-02-23T21:25:02.800Z,0
2023-02-23T21:30:02.634Z,0
2023-02-23T21:35:02.441Z,0
2023-02-23T21:40:02.652Z,0
2023-02-23T21:45:03.362Z,0
2023-02-23T21:50:03.077Z,0
2023-02-23T21:55:23.143Z,0
2023-02-23T22:00:02.619Z,0
2023-02-23T22:05:02.432Z,0
2023-02-23T22:10:03.346Z,0
2023-02-23T22:15:07.944Z,0
2023-02-23T22:20:02.729Z,0
2023-02-23T22:25:02.562Z,0
2023-02-23T22:30:02.490Z,0
2023-02-23T22:35:03.238Z,0
2023-02-23T22:40:03.204Z,0
2023-02-23T22:45:02.961Z,0
2023-02-23T22:50:02.948Z,0
2023-02-23T22:55:03.442Z,0
2023-02-23T23:00:02.438Z,0
2023-02-23T23:05:02.585Z,0
2023-02-23T23:10:03.307Z,0
2023-02-23T23:15:03.289Z,0
2023-02-23T23:20:03.541Z,0
2023-02-23T23:25:02.880Z,0
2023-02-23T23:30:02.592Z,0
2023-02-23T23:35:03.609Z,0
2023-02-23T23:40:03.014Z,0
2023-02-23T23:45:02.919Z,0
2023-02-23T23:50:02.397Z,0
2023-02-23T23:55:03.634Z,0
